Time;durP1;ratioP1;P1;durP2;ratioP2;P2;SDS_P1;SDS_P2;PMS_P1;PMS_P2;Temp;Humidity;BMP_temperature;BMP_pressure;BME280_temperature;BME280_humidity;BME280_pressure;Samples;Min_cycle;Max_cycle;Signal;HPM_P1;HPM_P2
2022/12/11 00:01:37;;;;;;;1999.90;999.90;;;;;;;1.78;100.00;96292.16;5050636;28;20089;-78
2022/12/11 00:04:02;;;;;;;1999.90;999.90;;;;;;;1.81;100.00;96293.47;5050248;28;20104;-76
2022/12/11 00:06:27;;;;;;;1999.90;999.90;;;;;;;1.97;100.00;96282.28;5049659;28;20064;-75
2022/12/11 00:08:54;;;;;;;1999.90;999.90;;;;;;;1.92;100.00;96282.34;5049928;28;20029;-77
2022/12/11 00:11:21;;;;;;;1999.90;999.90;;;;;;;1.92;100.00;96284.22;5050151;28;20017;-74
2022/12/11 00:13:46;;;;;;;1999.90;999.90;;;;;;;1.79;100.00;96279.47;5050221;28;20120;-76
2022/12/11 00:16:12;;;;;;;1999.90;999.90;;;;;;;1.82;100.00;96279.72;5050095;28;20119;-77
2022/12/11 00:18:38;;;;;;;1999.90;999.90;;;;;;;1.89;100.00;96282.91;5048380;28;20036;-75
2022/12/11 00:21:06;;;;;;;1999.90;999.90;;;;;;;1.81;100.00;96270.03;5047796;28;20082;-77
2022/12/11 00:23:34;;;;;;;1999.90;999.90;;;;;;;1.77;100.00;96271.66;5051774;28;20035;-76
2022/12/11 00:25:59;;;;;;;1999.90;999.90;;;;;;;1.85;100.00;96283.75;5048870;28;20397;-77
2022/12/11 00:28:24;;;;;;;1999.90;999.90;;;;;;;1.74;100.00;96280.31;5052530;28;20028;-79
2022/12/11 00:30:50;;;;;;;1999.90;999.90;;;;;;;1.66;100.00;96272.81;5054136;28;20017;-77
2022/12/11 00:33:16;;;;;;;1999.90;999.90;;;;;;;1.66;100.00;96285.50;5054776;28;20025;-79
2022/12/11 00:35:44;;;;;;;1999.90;999.90;;;;;;;1.62;100.00;96282.56;5054727;28;20025;-78
2022/12/11 00:38:17;;;;;;;1999.90;999.90;;;;;;;1.73;100.00;96297.56;5053981;28;20040;-77
2022/12/11 00:40:43;;;;;;;1999.90;999.90;;;;;;;1.79;100.00;96296.44;5053999;28;20052;-75
2022/12/11 00:43:08;;;;;;;1999.90;999.90;;;;;;;1.79;100.00;96301.81;5053948;28;20028;-75
2022/12/11 00:45:40;;;;;;;1999.90;999.90;;;;;;;1.73;100.00;96302.94;5053458;28;20048;-75
2022/12/11 00:48:06;;;;;;;1999.90;999.90;;;;;;;1.67;100.00;96308.66;5053735;28;20078;-77
2022/12/11 00:50:32;;;;;;;1999.90;999.90;;;;;;;1.68;100.00;96303.00;5053382;28;20020;-79
2022/12/11 00:52:57;;;;;;;1999.90;999.90;;;;;;;1.65;100.00;96317.03;5053186;28;20098;-75
2022/12/11 00:55:23;;;;;;;1999.90;999.90;;;;;;;1.52;100.00;96320.34;5053536;28;20541;-76
2022/12/11 00:57:51;;;;;;;1999.90;999.90;;;;;;;1.60;100.00;96330.50;5053419;28;20692;-80
2022/12/11 01:00:16;;;;;;;1999.90;999.90;;;;;;;1.73;100.00;96335.28;5054047;28;20505;-75
2022/12/11 01:02:42;;;;;;;1999.90;999.90;;;;;;;1.72;100.00;96328.31;5053630;28;20025;-76
2022/12/11 01:05:09;;;;;;;1999.90;999.90;;;;;;;1.83;100.00;96343.31;5053274;28;20055;-79
2022/12/11 01:07:34;;;;;;;1999.90;999.90;;;;;;;1.90;100.00;96346.50;5052197;28;20397;-75
2022/12/11 01:12:43;;;;;;;1999.90;999.90;;;;;;;1.84;100.00;96357.59;5055943;28;20024;-82
2022/12/11 01:15:10;;;;;;;1999.90;999.90;;;;;;;1.79;100.00;96357.63;5055999;28;20029;-83
2022/12/11 01:17:36;;;;;;;1999.90;999.90;;;;;;;1.66;100.00;96356.34;5056693;28;20091;-84
2022/12/11 01:20:03;;;;;;;1999.90;999.90;;;;;;;1.70;100.00;96368.19;5056349;28;20132;-83
2022/12/11 01:22:29;;;;;;;1999.90;999.90;;;;;;;1.70;100.00;96370.88;5056825;28;20424;-81
2022/12/11 01:24:54;;;;;;;1999.90;999.90;;;;;;;1.67;100.00;96368.75;5057646;28;20036;-82
2022/12/11 01:27:19;;;;;;;1999.90;999.90;;;;;;;1.70;100.00;96378.97;5057019;28;20025;-82
2022/12/11 01:29:45;;;;;;;1999.90;999.90;;;;;;;1.78;100.00;96369.50;5056781;28;20024;-78
2022/12/11 01:32:10;;;;;;;1999.90;999.90;;;;;;;1.81;100.00;96374.34;5053268;28;20075;-79
2022/12/11 01:34:35;;;;;;;1999.90;999.90;;;;;;;1.80;100.00;96372.72;5053463;28;20074;-78
2022/12/11 01:37:01;;;;;;;1999.90;999.90;;;;;;;1.86;100.00;96375.09;5053296;28;20028;-77
2022/12/11 01:39:26;;;;;;;1999.90;999.90;;;;;;;1.86;100.00;96371.59;5052978;28;20464;-80
2022/12/11 01:41:56;;;;;;;1999.90;999.90;;;;;;;1.88;100.00;96375.63;5053032;28;20083;-81
2022/12/11 01:44:21;;;;;;;1999.90;999.90;;;;;;;1.91;100.00;96376.97;5051783;28;20041;-77
2022/12/11 01:46:47;;;;;;;1999.90;999.90;;;;;;;1.89;100.00;96371.84;5053189;28;20029;-78
2022/12/11 01:49:16;;;;;;;1999.90;999.90;;;;;;;1.78;100.00;96370.31;5056553;28;20059;-80
2022/12/11 01:51:49;;;;;;;1999.90;999.90;;;;;;;1.85;100.00;96386.94;5060074;28;20032;-78
2022/12/11 01:54:17;;;;;;;1999.90;999.90;;;;;;;1.80;100.00;96373.53;5053562;28;20025;-79
2022/12/11 01:56:45;;;;;;;1999.90;999.90;;;;;;;1.80;100.00;96372.72;5053490;28;20025;-79
2022/12/11 01:59:12;;;;;;;1999.90;999.90;;;;;;;1.71;100.00;96374.38;5053298;28;20037;-82
2022/12/11 02:01:54;;;;;;;1999.90;999.90;;;;;;;1.81;100.00;96377.84;5053781;28;20087;-84
2022/12/11 02:04:19;;;;;;;1999.90;999.90;;;;;;;1.77;100.00;96387.56;5053358;28;20489;-78
2022/12/11 02:06:47;;;;;;;1999.90;999.90;;;;;;;1.72;100.00;96382.19;5053577;28;20031;-76
2022/12/11 02:09:17;;;;;;;1999.90;999.90;;;;;;;1.67;100.00;96384.91;5053637;28;20029;-77
2022/12/11 02:12:07;;;;;;;1999.90;999.90;;;;;;;1.67;100.00;96390.28;5052365;28;20445;-77
2022/12/11 02:15:10;;;;;;;1999.90;999.90;;;;;;;1.75;100.00;96397.00;5052226;28;20028;-77
2022/12/11 02:17:54;;;;;;;1999.90;999.90;;;;;;;1.81;100.00;96391.31;5051901;28;20033;-76
2022/12/11 02:20:30;;;;;;;1999.90;999.90;;;;;;;1.83;100.00;96393.72;5051924;28;20166;-79
2022/12/11 02:23:11;;;;;;;1999.90;999.90;;;;;;;1.76;100.00;96393.19;5051903;28;20025;-80
2022/12/11 02:25:58;;;;;;;1999.90;999.90;;;;;;;1.82;100.00;96392.09;5052105;28;20371;-78
2022/12/11 02:28:36;;;;;;;1999.90;999.90;;;;;;;1.73;100.00;96399.97;5050749;28;20028;-78
2022/12/11 02:31:11;;;;;;;1999.90;999.90;;;;;;;1.76;100.00;96402.09;5052436;28;20021;-77
2022/12/11 02:33:44;;;;;;;1999.90;999.90;;;;;;;1.77;100.00;96395.63;5045652;28;20376;-77
2022/12/11 02:36:10;;;;;;;1999.90;999.90;;;;;;;1.85;100.00;96395.03;5051062;28;20044;-78
2022/12/11 02:38:40;;;;;;;1999.90;999.90;;;;;;;1.88;100.00;96399.88;5050953;28;20036;-79
2022/12/11 02:41:08;;;;;;;1999.90;999.90;;;;;;;1.87;100.00;96400.97;5038498;28;20037;-78
2022/12/11 02:43:36;;;;;;;1999.90;999.90;;;;;;;1.81;100.00;96396.69;5051212;28;20025;-77
2022/12/11 02:46:04;;;;;;;1999.90;999.90;;;;;;;1.80;100.00;96392.38;5051358;28;20108;-78
2022/12/11 02:48:32;;;;;;;1999.90;999.90;;;;;;;1.74;100.00;96395.38;5051522;28;20029;-78
2022/12/11 02:51:00;;;;;;;1999.90;999.90;;;;;;;1.67;100.00;96384.91;5051027;28;20044;-79
2022/12/11 02:53:28;;;;;;;1999.90;999.90;;;;;;;1.62;100.00;96390.34;5051247;28;20540;-79
2022/12/11 02:56:02;;;;;;;1999.90;999.90;;;;;;;1.70;100.00;96378.97;5051207;28;20079;-78
2022/12/11 02:58:31;;;;;;;1999.90;999.90;;;;;;;1.78;100.00;96385.66;5042093;28;20469;-78
2022/12/11 03:00:57;;;;;;;1999.90;999.90;;;;;;;1.66;100.00;96377.91;5031650;28;20029;-80
2022/12/11 03:03:22;;;;;;;1999.90;999.90;;;;;;;1.76;100.00;96374.34;5031335;28;20026;-80
2022/12/11 03:05:48;;;;;;;1999.90;999.90;;;;;;;1.53;100.00;96367.75;5031521;28;20046;-81
2022/12/11 03:08:16;;;;;;;1999.90;999.90;;;;;;;1.56;100.00;96361.81;5031264;28;20038;-76
2022/12/11 03:10:42;;;;;;;1999.90;999.90;;;;;;;1.55;100.00;96368.28;5031094;28;20044;-75
2022/12/11 03:13:07;;;;;;;1999.90;999.90;;;;;;;1.38;100.00;96375.91;5030860;28;20029;-77
2022/12/11 03:16:03;;;;;;;1999.90;999.90;;;;;;;1.53;100.00;96370.44;5030606;28;20030;-75
2022/12/11 03:18:52;;;;;;;1999.90;999.90;;;;;;;1.45;100.00;96371.81;5030229;28;20033;-77
2022/12/11 03:21:24;;;;;;;1999.90;999.90;;;;;;;1.43;100.00;96368.59;5046045;28;20380;-77
2022/12/11 03:24:04;;;;;;;1999.90;999.90;;;;;;;1.52;100.00;96375.03;5049874;28;20040;-76
2022/12/11 03:26:35;;;;;;;1999.90;999.90;;;;;;;1.48;100.00;96365.06;5050143;28;20039;-75
2022/12/11 03:29:15;;;;;;;1999.90;999.90;;;;;;;1.52;100.00;96383.09;5049221;28;20090;-75
2022/12/11 03:32:04;;;;;;;1999.90;999.90;;;;;;;1.58;100.00;96370.41;5051156;28;20025;-77
2022/12/11 03:34:37;;;;;;;1999.90;999.90;;;;;;;1.71;100.00;96371.69;5050815;28;20060;-79
2022/12/11 03:37:04;;;;;;;1999.90;999.90;;;;;;;1.70;100.00;96367.38;5049322;28;20478;-78
2022/12/11 03:39:39;;;;;;;1999.90;999.90;;;;;;;1.76;100.00;96372.47;5051186;28;20037;-78
2022/12/11 03:42:08;;;;;;;1999.90;999.90;;;;;;;1.54;100.00;96363.94;5049091;28;20071;-77
2022/12/11 03:44:35;;;;;;;1999.90;999.90;;;;;;;1.70;100.00;96372.75;5050588;28;20021;-79
2022/12/11 03:47:04;;;;;;;1999.90;999.90;;;;;;;1.69;100.00;96373.88;5050244;28;20021;-78
2022/12/11 03:49:35;;;;;;;1999.90;999.90;;;;;;;1.80;100.00;96373.53;5050469;28;20033;-79
2022/12/11 03:52:02;;;;;;;1999.90;999.90;;;;;;;1.79;100.00;96363.81;5050444;28;20445;-78
2022/12/11 03:54:28;;;;;;;1999.90;999.90;;;;;;;1.98;100.00;96372.06;5050460;28;20478;-77
2022/12/11 03:56:57;;;;;;;1999.90;999.90;;;;;;;1.87;100.00;96382.09;5051105;28;20431;-77
2022/12/11 03:59:22;;;;;;;1999.90;999.90;;;;;;;1.86;100.00;96371.59;5053537;28;20474;-81
2022/12/11 04:01:47;;;;;;;1999.90;999.90;;;;;;;1.85;100.00;96373.47;5055823;28;20031;-79
2022/12/11 04:04:13;;;;;;;1999.90;999.90;;;;;;;1.84;100.00;96379.16;5054498;28;20029;-77
2022/12/11 04:06:38;;;;;;;1999.90;999.90;;;;;;;1.92;100.00;96381.25;5054373;28;20112;-78
2022/12/11 04:09:03;;;;;;;1999.90;999.90;;;;;;;1.94;100.00;96379.88;5054311;28;20033;-78
2022/12/11 04:11:34;;;;;;;1999.90;999.90;;;;;;;2.01;100.00;96385.78;5054401;28;20110;-77
2022/12/11 04:16:58;;;;;;;1999.90;999.90;;;;;;;1.85;100.00;96386.94;5054453;28;20121;-77
2022/12/11 04:24:14;;;;;;;1999.90;999.90;;;;;;;1.77;100.00;96359.78;5054563;28;20175;-77
2022/12/11 04:25:04;;;;;;;1999.90;999.90;;;;;;;1.87;100.00;96374.03;5054099;28;20386;-77
2022/12/11 04:27:47;;;;;;;1999.90;999.90;;;;;;;1.79;100.00;96371.91;5054184;28;20029;-77
2022/12/11 04:30:16;;;;;;;1999.90;999.90;;;;;;;1.80;100.00;96384.28;5054540;28;20032;-79
2022/12/11 04:32:41;;;;;;;1999.90;999.90;;;;;;;1.90;100.00;96392.34;5054074;28;20067;-77
2022/12/11 04:35:08;;;;;;;1999.90;999.90;;;;;;;1.91;100.00;96390.44;5054273;28;20056;-78
2022/12/11 04:37:34;;;;;;;1999.90;999.90;;;;;;;1.92;100.00;96387.47;5054301;28;20032;-78
2022/12/11 04:39:59;;;;;;;1999.90;999.90;;;;;;;1.94;100.00;96400.66;5056638;28;20375;-77
2022/12/11 04:42:25;;;;;;;1999.90;999.90;;;;;;;1.94;100.00;96396.06;5056901;28;21479;-77
2022/12/11 04:44:50;;;;;;;1999.90;999.90;;;;;;;2.01;100.00;96391.16;5057066;28;20032;-78
2022/12/11 04:47:16;;;;;;;1999.90;999.90;;;;;;;2.15;100.00;96400.25;5055160;28;20033;-76
2022/12/11 04:49:41;;;;;;;1999.90;999.90;;;;;;;2.09;100.00;96400.56;5053946;28;20493;-77
2022/12/11 04:52:06;;;;;;;1999.90;999.90;;;;;;;2.02;100.00;96392.78;5053552;28;20033;-76
2022/12/11 04:54:32;;;;;;;1999.90;999.90;;;;;;;2.09;100.00;96398.69;5053639;28;20401;-77
2022/12/11 04:56:57;;;;;;;1999.90;999.90;;;;;;;2.07;100.00;96395.44;5053904;28;20436;-77
2022/12/11 04:59:22;;;;;;;1999.90;999.90;;;;;;;2.05;100.00;96392.22;5054323;28;20031;-77
2022/12/11 05:01:48;;;;;;;1999.90;999.90;;;;;;;2.02;100.00;96390.09;5054187;28;20405;-77
2022/12/11 05:04:13;;;;;;;1999.90;999.90;;;;;;;1.98;100.00;96386.34;5053497;28;20146;-79
2022/12/11 05:06:38;;;;;;;1999.90;999.90;;;;;;;1.98;100.00;96386.34;5053306;28;20028;-79
2022/12/11 05:09:04;;;;;;;1999.90;999.90;;;;;;;2.04;100.00;96390.63;5054567;28;20363;-81
2022/12/11 05:11:29;;;;;;;1999.90;999.90;;;;;;;2.11;100.00;96401.91;5055745;28;20101;-78
2022/12/11 05:13:54;;;;;;;1999.90;999.90;;;;;;;1.99;100.00;96389.84;5053076;28;20445;-78
2022/12/11 05:16:20;;;;;;;1999.90;999.90;;;;;;;2.00;100.00;96399.56;5053519;28;20032;-78
2022/12/11 05:18:46;;;;;;;1999.90;999.90;;;;;;;1.95;100.00;96392.28;5053403;28;20375;-77
2022/12/11 05:21:13;;;;;;;1999.90;999.90;;;;;;;1.93;100.00;96394.47;5053263;28;20052;-79
2022/12/11 05:23:39;;;;;;;1999.90;999.90;;;;;;;1.97;100.00;96400.88;5053290;28;20056;-78
2022/12/11 05:26:07;;;;;;;1999.90;999.90;;;;;;;1.93;100.00;96399.06;5053267;28;20057;-78
2022/12/11 05:28:35;;;;;;;1999.90;999.90;;;;;;;1.80;100.00;96395.06;5053238;28;20037;-77
2022/12/11 05:31:04;;;;;;;1999.90;999.90;;;;;;;1.86;100.00;96391.28;5054159;28;20099;-78
2022/12/11 05:33:30;;;;;;;1999.90;999.90;;;;;;;1.84;100.00;96396.16;5052142;28;20025;-80
2022/12/11 05:35:56;;;;;;;1999.90;999.90;;;;;;;1.81;100.00;96391.31;5053291;28;20544;-80
2022/12/11 05:38:23;;;;;;;1999.90;999.90;;;;;;;1.79;100.00;96388.06;5053353;28;20033;-78
2022/12/11 05:40:59;;;;;;;1999.90;999.90;;;;;;;1.78;100.00;96391.06;5052717;28;20568;-80
2022/12/11 05:43:26;;;;;;;1999.90;999.90;;;;;;;1.82;100.00;96403.69;5053410;28;20028;-77
2022/12/11 05:45:51;;;;;;;1999.90;999.90;;;;;;;1.77;100.00;96401.03;5052807;28;20025;-77
2022/12/11 05:48:17;;;;;;;1999.90;999.90;;;;;;;1.88;100.00;96409.88;5053090;28;20031;-78
2022/12/11 05:50:42;;;;;;;1999.90;999.90;;;;;;;1.81;100.00;96412.06;5052771;28;20052;-78
2022/12/11 05:53:07;;;;;;;1999.90;999.90;;;;;;;1.86;100.00;96410.13;5052697;28;20478;-80
2022/12/11 05:55:33;;;;;;;1999.90;999.90;;;;;;;1.91;100.00;96414.72;5052890;28;20037;-77
2022/12/11 05:57:59;;;;;;;1999.90;999.90;;;;;;;1.82;100.00;96398.28;5052517;28;20056;-79
2022/12/11 06:00:24;;;;;;;1999.90;999.90;;;;;;;1.81;100.00;96404.78;5053080;28;20033;-78
2022/12/11 06:02:49;;;;;;;1999.90;999.90;;;;;;;1.77;100.00;96395.63;5051333;28;20025;-78
2022/12/11 06:05:15;;;;;;;1999.90;999.90;;;;;;;1.75;100.00;96397.00;5052607;28;20106;-79
2022/12/11 06:07:40;;;;;;;1999.90;999.90;;;;;;;1.76;100.00;96399.41;5053185;28;20110;-77
2022/12/11 06:10:06;;;;;;;1999.90;999.90;;;;;;;1.80;100.00;96389.69;5058479;28;20478;-78
2022/12/11 06:12:31;;;;;;;1999.90;999.90;;;;;;;1.88;100.00;96391.00;5054044;28;20057;-77
2022/12/11 06:14:57;;;;;;;1999.90;999.90;;;;;;;1.97;100.00;96403.59;5052517;28;20120;-78
2022/12/11 06:17:22;;;;;;;1999.90;999.90;;;;;;;1.93;100.00;96401.75;5052464;28;20035;-80
2022/12/11 06:19:47;;;;;;;1999.90;999.90;;;;;;;1.98;100.00;96407.91;5051361;28;20040;-78
2022/12/11 06:22:13;;;;;;;1999.90;999.90;;;;;;;1.97;100.00;96419.75;5032458;28;20034;-80
2022/12/11 06:24:38;;;;;;;1999.90;999.90;;;;;;;1.91;100.00;96418.19;5031236;28;20037;-78
2022/12/11 06:27:03;;;;;;;1999.90;999.90;;;;;;;1.96;100.00;96426.25;5032187;28;20028;-77
2022/12/11 06:29:29;;;;;;;1999.90;999.90;;;;;;;1.90;100.00;96430.06;5032213;28;20030;-77
2022/12/11 06:31:54;;;;;;;1999.90;999.90;;;;;;;2.12;100.00;96432.38;5032516;28;20525;-77
2022/12/11 06:34:19;;;;;;;1999.90;999.90;;;;;;;2.04;100.00;96428.34;5032192;28;20153;-80
2022/12/11 06:36:45;;;;;;;1999.90;999.90;;;;;;;2.02;100.00;96430.53;5032150;28;20112;-76
2022/12/11 06:39:11;;;;;;;1999.90;999.90;;;;;;;2.03;100.00;96436.75;5032150;28;20034;-80
2022/12/11 06:41:36;;;;;;;1999.90;999.90;;;;;;;1.98;100.00;96442.13;5033963;28;20095;-78
2022/12/11 06:44:01;;;;;;;1999.90;999.90;;;;;;;2.08;100.00;96440.19;5034706;28;20060;-83
2022/12/11 06:46:27;;;;;;;1999.90;999.90;;;;;;;1.96;100.00;96431.66;5033914;28;20111;-80
2022/12/11 06:48:52;;;;;;;1999.90;999.90;;;;;;;2.01;100.00;96439.69;5034836;28;20016;-78
2022/12/11 06:51:20;;;;;;;1999.90;999.90;;;;;;;2.08;100.00;96444.78;5030490;28;20032;-81
2022/12/11 06:53:53;;;;;;;1999.90;999.90;;;;;;;1.99;100.00;96436.50;5032292;28;20631;-79
2022/12/11 06:56:18;;;;;;;1999.90;999.90;;;;;;;1.85;100.00;96435.47;5033697;28;20112;-83
2022/12/11 06:58:44;;;;;;;1999.90;999.90;;;;;;;1.84;100.00;96450.06;5052842;28;20135;-82
2022/12/11 07:01:39;;;;;;;1999.90;999.90;;;;;;;1.97;100.00;96460.19;5056382;28;20051;-78
2022/12/11 07:04:05;;;;;;;1999.90;999.90;;;;;;;1.92;100.00;96462.94;5043661;28;20041;-76
2022/12/11 07:06:30;;;;;;;1999.90;999.90;;;;;;;1.97;100.00;96472.91;5051589;28;20152;-78
2022/12/11 07:08:55;;;;;;;1999.90;999.90;;;;;;;1.91;100.00;96472.09;5052005;28;20492;-79
2022/12/11 07:11:22;;;;;;;1999.90;999.90;;;;;;;1.90;100.00;96485.88;5049303;28;20112;-82
2022/12/11 07:13:47;;;;;;;1999.90;999.90;;;;;;;2.00;100.00;96493.91;5045235;28;20108;-83
2022/12/11 07:16:15;;;;;;;1999.90;999.90;;;;;;;2.02;100.00;96484.47;5054627;28;20060;-77
2022/12/11 07:18:45;;;;;;;1999.90;999.90;;;;;;;1.99;100.00;96486.91;5037837;28;20033;-82
2022/12/11 07:21:12;;;;;;;1999.90;999.90;;;;;;;1.92;100.00;96495.28;5031851;28;20108;-76
2022/12/11 07:23:38;;;;;;;1999.90;999.90;;;;;;;1.99;100.00;96490.41;5035346;28;20024;-85
2022/12/11 07:26:09;;;;;;;1999.90;999.90;;;;;;;2.06;100.00;96501.69;5035153;28;20025;-82
2022/12/11 07:28:35;;;;;;;1999.90;999.90;;;;;;;2.05;100.00;96504.66;5031545;28;20032;-82
2022/12/11 07:31:08;;;;;;;1999.90;999.90;;;;;;;2.01;100.00;96496.31;5032761;28;20104;-76
2022/12/11 07:33:34;;;;;;;1999.90;999.90;;;;;;;2.10;100.00;96494.66;5030653;28;20041;-77
2022/12/11 07:36:02;;;;;;;1999.90;999.90;;;;;;;2.15;100.00;96496.53;5030245;28;20041;-78
2022/12/11 07:38:27;;;;;;;1999.90;999.90;;;;;;;2.28;100.00;96497.81;5029524;28;20155;-77
2022/12/11 07:40:52;;;;;;;1999.90;999.90;;;;;;;2.32;100.00;96505.03;5030339;28;20112;-75
2022/12/11 07:43:18;;;;;;;1999.90;999.90;;;;;;;2.39;100.00;96499.34;5030472;28;20498;-77
2022/12/11 07:45:43;;;;;;;1999.90;999.90;;;;;;;2.41;100.00;96489.88;5031009;28;20040;-77
2022/12/11 07:48:08;;;;;;;1999.90;999.90;;;;;;;2.49;100.00;96488.50;5050822;28;20504;-77
2022/12/11 07:50:34;;;;;;;1999.90;999.90;;;;;;;2.52;100.00;96488.75;5049655;28;20504;-76
2022/12/11 07:52:59;;;;;;;1999.90;999.90;;;;;;;2.56;100.00;96492.50;5051140;28;20025;-75
2022/12/11 07:55:24;;;;;;;1999.90;999.90;;;;;;;2.54;100.00;96494.66;5051272;28;20040;-75
2022/12/11 07:57:50;;;;;;;1999.90;999.90;;;;;;;2.46;100.00;96489.06;5058457;28;20033;-86
2022/12/11 08:00:16;;;;;;;1999.90;999.90;;;;;;;2.56;100.00;96494.41;5058901;28;20021;-84
2022/12/11 08:02:41;;;;;;;1999.90;999.90;;;;;;;2.62;100.00;96501.38;5061046;28;20025;-85
2022/12/11 08:05:07;;;;;;;1999.90;999.90;;;;;;;2.59;100.00;96491.94;5054766;28;20076;-79
2022/12/11 08:07:34;;;;;;;1999.90;999.90;;;;;;;2.63;100.00;96511.09;5050035;28;20032;-79
2022/12/11 08:09:59;;;;;;;1999.90;999.90;;;;;;;2.54;100.00;96518.13;5049856;28;20112;-76
2022/12/11 08:12:25;;;;;;;1999.90;999.90;;;;;;;2.37;100.00;96501.53;5030021;28;20017;-77
2022/12/11 08:14:50;;;;;;;1999.90;999.90;;;;;;;2.33;100.00;96498.56;5030086;28;20422;-76
2022/12/11 08:17:15;;;;;;;1999.90;999.90;;;;;;;2.44;100.00;96502.84;5031009;28;20055;-76
2022/12/11 08:19:41;;;;;;;1999.90;999.90;;;;;;;2.46;100.00;96503.34;5018216;28;20029;-77
2022/12/11 08:22:06;;;;;;;1999.90;999.90;;;;;;;2.42;100.00;96504.19;5035290;28;20033;-74
2022/12/11 08:24:31;;;;;;;1999.90;999.90;;;;;;;2.57;100.00;96518.38;5030083;28;20030;-78
2022/12/11 08:26:57;;;;;;;1999.90;999.90;;;;;;;2.55;100.00;96519.75;5030413;28;20037;-75
2022/12/11 08:29:22;;;;;;;1999.90;999.90;;;;;;;2.46;100.00;96500.66;5029794;28;20070;-77
2022/12/11 08:31:47;;;;;;;1999.90;999.90;;;;;;;2.56;100.00;96506.00;5030396;28;20363;-76
2022/12/11 08:34:13;;;;;;;1999.90;999.90;;;;;;;2.49;100.00;96504.69;5029926;28;20493;-77
2022/12/11 08:36:39;;;;;;;1999.90;999.90;;;;;;;2.50;100.00;96527.91;5029570;28;20025;-76
2022/12/11 08:39:04;;;;;;;1999.90;999.90;;;;;;;2.59;100.00;96531.63;5029585;28;20041;-77
2022/12/11 08:41:30;;;;;;;1999.90;999.90;;;;;;;2.66;100.00;96522.09;5040793;28;20025;-76
2022/12/11 08:43:57;;;;;;;1999.90;999.90;;;;;;;2.79;100.00;96536.84;5047748;28;20021;-76
2022/12/11 08:46:25;;;;;;;1999.90;999.90;;;;;;;2.77;100.00;96539.03;5049603;28;20536;-76
2022/12/11 08:48:52;;;;;;;1999.90;999.90;;;;;;;2.80;100.00;96530.38;5051541;28;20013;-76
2022/12/11 08:51:21;;;;;;;1999.90;999.90;;;;;;;2.96;100.00;96544.56;5059652;28;20028;-77
2022/12/11 08:53:47;;;;;;;1999.90;999.90;;;;;;;2.99;100.00;96542.13;5054402;28;20086;-78
2022/12/11 08:56:15;;;;;;;1999.90;999.90;;;;;;;3.09;100.00;96541.25;5053851;28;20824;-76
2022/12/11 08:58:42;;;;;;;1999.90;999.90;;;;;;;3.22;100.00;96563.00;5052202;28;20057;-78
2022/12/11 09:01:12;;;;;;;1999.90;999.90;;;;;;;3.22;100.00;96573.81;5053983;28;20040;-75
2022/12/11 09:03:38;;;;;;;1999.90;999.90;;;;;;;3.23;100.00;96570.00;5051865;28;20029;-77
2022/12/11 09:06:12;;;;;;;1999.90;999.90;;;;;;;3.21;100.00;96572.19;5045856;28;20081;-78
2022/12/11 09:08:38;;;;;;;1999.90;999.90;;;;;;;3.12;100.00;96571.19;5031137;28;20034;-76
2022/12/11 09:11:17;;;;;;;1999.90;999.90;;;;;;;3.21;100.00;96583.00;5032864;28;20510;-74
2022/12/11 09:13:43;;;;;;;1999.90;999.90;;;;;;;3.28;100.00;96589.97;5031867;28;20075;-76
2022/12/11 09:16:12;;;;;;;1999.90;999.90;;;;;;;3.26;100.00;96590.25;5043516;28;20425;-75
2022/12/11 09:18:38;;;;;;;1999.90;999.90;;;;;;;3.32;100.00;96577.53;5052633;28;20068;-77
2022/12/11 09:21:06;;;;;;;1999.90;999.90;;;;;;;3.31;100.00;96576.72;5051933;28;20041;-74
2022/12/11 09:23:31;;;;;;;1999.90;999.90;;;;;;;3.20;100.00;96569.75;5049366;28;20036;-76
2022/12/11 09:25:57;;;;;;;1999.90;999.90;;;;;;;3.07;100.00;96560.41;5051072;28;20033;-77
2022/12/11 09:28:23;;;;;;;1999.90;999.90;;;;;;;3.17;100.00;96581.13;5051623;28;20024;-77
2022/12/11 09:30:48;;;;;;;1999.90;999.90;;;;;;;3.08;100.00;96569.31;5051724;28;20047;-76
2022/12/11 09:33:14;;;;;;;1999.90;999.90;;;;;;;3.06;100.00;96575.03;5051163;28;20037;-76
2022/12/11 09:35:39;;;;;;;1999.90;999.90;;;;;;;3.05;100.00;96572.59;5048972;28;20029;-75
2022/12/11 09:38:04;;;;;;;1999.90;999.90;;;;;;;2.98;100.00;96575.59;5049459;28;20106;-77
2022/12/11 09:40:31;;;;;;;1999.90;999.90;;;;;;;3.05;100.00;96575.28;5052685;28;20025;-76
2022/12/11 09:43:05;;;;;;;1999.90;999.90;;;;;;;3.15;100.00;96573.34;5051468;28;20029;-76
2022/12/11 09:45:30;;;;;;;1999.90;999.90;;;;;;;3.16;100.00;96572.22;5053869;28;20039;-77
2022/12/11 09:47:57;;;;;;;1999.90;999.90;;;;;;;3.25;100.00;96572.44;5051955;28;20103;-75
2022/12/11 09:50:30;;;;;;;1999.90;999.90;;;;;;;3.33;100.00;96577.22;5052499;28;20070;-75
2022/12/11 09:53:10;;;;;;;1999.90;999.90;;;;;;;3.36;100.00;96567.75;5052247;28;20028;-77
2022/12/11 09:56:00;;;;;;;1999.90;999.90;;;;;;;3.45;100.00;96558.75;5051670;28;20040;-76
2022/12/11 09:58:42;;;;;;;1999.90;999.90;;;;;;;3.43;100.00;96558.22;5061612;28;20051;-75
2022/12/11 10:01:36;;;;;;;1999.90;999.90;;;;;;;3.43;100.00;96552.81;5055889;28;20029;-76
2022/12/11 10:04:01;;;;;;;1999.90;999.90;;;;;;;3.57;100.00;96561.09;5045704;28;20541;-78
2022/12/11 10:06:40;;;;;;;1999.90;999.90;;;;;;;3.54;100.00;96570.53;5059157;28;20147;-76
2022/12/11 10:09:24;;;;;;;1999.90;999.90;;;;;;;3.63;100.00;96568.06;5067954;28;20068;-75
2022/12/11 10:11:53;;;;;;;1999.90;999.90;;;;;;;3.70;100.00;96563.09;5039851;28;20046;-76
2022/12/11 10:14:41;;;;;;;1999.90;999.90;;;;;;;3.66;100.00;96557.47;5060767;28;20432;-77
2022/12/11 10:17:22;;;;;;;1999.90;999.90;;;;;;;3.56;100.00;96554.88;5067546;28;20055;-77
2022/12/11 10:19:48;;;;;;;1999.90;999.90;;;;;;;3.60;100.00;96557.81;5041966;28;20028;-76
2022/12/11 10:22:20;;;;;;;1999.90;999.90;;;;;;;3.62;100.00;96552.91;5062722;28;20028;-75
2022/12/11 10:25:01;;;;;;;1999.90;999.90;;;;;;;3.60;100.00;96552.41;5049284;28;20359;-77
2022/12/11 10:27:37;;;;;;;1999.90;999.90;;;;;;;3.56;100.00;96551.34;5057000;28;20028;-80
2022/12/11 10:30:11;;;;;;;1999.90;999.90;;;;;;;3.53;100.00;96552.75;5055529;28;20143;-74
2022/12/11 10:32:59;;;;;;;1999.90;999.90;;;;;;;3.17;100.00;96538.72;5063963;28;20031;-75
2022/12/11 10:35:52;;;;;;;1999.90;999.90;;;;;;;3.34;100.00;96553.72;5054406;28;20031;-75
2022/12/11 10:38:24;;;;;;;1999.90;999.90;;;;;;;3.39;100.00;96551.78;5059995;28;20049;-78
2022/12/11 10:40:56;;;;;;;1999.90;999.90;;;;;;;3.51;100.00;96554.13;5057064;28;20029;-77
2022/12/11 10:43:49;;;;;;;1999.90;999.90;;;;;;;3.46;100.00;96546.84;5054515;28;20496;-75
2022/12/11 10:46:16;;;;;;;1999.90;999.90;;;;;;;3.27;100.00;96558.63;5061131;28;20116;-76
2022/12/11 10:48:45;;;;;;;1999.90;999.90;;;;;;;2.74;100.00;96545.00;5063434;28;20367;-77
2022/12/11 10:51:11;;;;;;;1999.90;999.90;;;;;;;2.86;100.00;96548.16;5051603;28;20039;-77
2022/12/11 10:53:39;;;;;;;1999.90;999.90;;;;;;;2.88;100.00;96537.88;5067336;28;20029;-75
2022/12/11 10:56:05;;;;;;;1999.90;999.90;;;;;;;3.01;100.00;96539.13;5051843;28;20064;-77
2022/12/11 10:58:32;;;;;;;1999.90;999.90;;;;;;;2.98;100.00;96529.69;5061505;28;20486;-76
2022/12/11 11:01:15;;;;;;;1999.90;999.90;;;;;;;3.14;100.00;96536.59;5055619;28;20127;-76
2022/12/11 11:03:57;;;;;;;1999.90;999.90;;;;;;;3.19;100.00;96541.97;5039589;28;20024;-76
2022/12/11 11:06:24;;;;;;;1999.90;999.90;;;;;;;3.17;100.00;96538.72;5059721;28;20082;-76
2022/12/11 11:08:52;;;;;;;1999.90;999.90;;;;;;;3.27;100.00;96545.94;5064099;28;20020;-77
2022/12/11 11:11:25;;;;;;;1999.90;999.90;;;;;;;3.26;100.00;96547.03;5053557;28;20111;-74